Time;durP1;ratioP1;P1;durP2;ratioP2;P2;SDS_P1;SDS_P2;PMS_P1;PMS_P2;Temp;Humidity;BMP_temperature;BMP_pressure;BME280_temperature;BME280_humidity;BME280_pressure;Samples;Min_cycle;Max_cycle;Signal;HPM_P1;HPM_P2
2023/06/03 00:02:18;;;;;;;4.97;4.53;;;;;;;18.63;68.80;96335.22;5044962;28;20202;-58
2023/06/03 00:04:46;;;;;;;4.70;4.30;;;;;;;18.61;69.08;96339.94;5055443;28;20216;-59
2023/06/03 00:07:12;;;;;;;4.85;4.38;;;;;;;18.56;68.08;96342.41;5038802;28;20223;-59
2023/06/03 00:09:39;;;;;;;5.63;5.10;;;;;;;18.57;68.22;96341.34;5055195;28;20187;-59
2023/06/03 00:12:06;;;;;;;4.68;4.28;;;;;;;18.51;69.75;96350.19;5050406;28;20262;-59
2023/06/03 00:14:32;;;;;;;4.88;4.38;;;;;;;18.52;69.27;96351.84;5036236;28;20216;-59
2023/06/03 00:16:59;;;;;;;5.00;4.60;;;;;;;18.46;69.20;96351.78;5039120;28;20235;-58
2023/06/03 00:19:25;;;;;;;5.32;4.93;;;;;;;18.42;70.38;96347.84;5034350;28;20211;-59
2023/06/03 00:21:54;;;;;;;5.10;4.70;;;;;;;18.35;70.93;96353.19;5051402;28;20208;-59
2023/06/03 00:24:22;;;;;;;5.07;4.65;;;;;;;18.23;71.98;96350.22;5035767;28;20208;-59
2023/06/03 00:26:49;;;;;;;5.57;4.82;;;;;;;18.17;72.83;96358.22;5039155;28;20312;-59
2023/06/03 00:29:19;;;;;;;5.65;5.00;;;;;;;18.05;73.72;96362.47;5038272;28;20208;-59
2023/06/03 00:31:46;;;;;;;5.18;4.78;;;;;;;17.88;74.25;96354.75;5018404;28;20196;-62
2023/06/03 00:34:12;;;;;;;5.22;4.30;;;;;;;17.89;74.28;96359.06;5020013;28;20274;-61
2023/06/03 00:36:39;;;;;;;5.22;4.72;;;;;;;17.82;74.22;96357.34;5053950;28;20234;-60
2023/06/03 00:39:08;;;;;;;5.00;4.60;;;;;;;17.65;75.45;96358.66;5055188;28;20207;-63
2023/06/03 00:41:34;;;;;;;5.43;4.65;;;;;;;17.56;76.36;96360.66;5055051;28;20255;-60
2023/06/03 00:44:01;;;;;;;4.93;4.50;;;;;;;17.56;75.35;96363.34;5055817;28;20230;-58
2023/06/03 00:46:31;;;;;;;5.57;4.63;;;;;;;17.47;76.61;96360.94;5052604;28;20210;-58
2023/06/03 00:48:57;;;;;;;4.40;4.00;;;;;;;17.44;76.35;96356.81;5041188;28;20208;-57
2023/06/03 00:51:24;;;;;;;5.43;4.80;;;;;;;17.43;77.10;96358.66;5034148;28;20207;-57
2023/06/03 00:53:50;;;;;;;5.13;4.68;;;;;;;17.41;76.80;96357.22;5034394;28;20531;-57
2023/06/03 00:56:19;;;;;;;6.45;4.80;;;;;;;17.38;76.79;96371.78;5033715;28;20582;-58
2023/06/03 00:58:46;;;;;;;5.78;4.65;;;;;;;17.26;77.36;96369.81;5034273;28;20214;-59
2023/06/03 01:01:13;;;;;;;5.53;4.68;;;;;;;17.25;77.82;96370.84;5020425;28;20211;-58
2023/06/03 01:03:42;;;;;;;6.53;4.68;;;;;;;17.16;77.90;96371.97;5034203;28;20232;-58
2023/06/03 01:06:15;;;;;;;5.78;4.47;;;;;;;17.09;77.37;96368.41;5033041;28;20513;-59
2023/06/03 01:08:51;;;;;;;5.05;4.60;;;;;;;16.99;78.96;96366.06;5032745;28;20231;-57
2023/06/03 01:11:25;;;;;;;5.38;4.88;;;;;;;17.01;79.59;96357.84;5051844;28;20246;-57
2023/06/03 01:13:56;;;;;;;4.93;4.53;;;;;;;16.87;79.33;96363.03;5057812;28;20188;-57
2023/06/03 01:16:24;;;;;;;5.00;4.50;;;;;;;16.83;80.57;96364.44;5039063;28;20285;-57
2023/06/03 01:18:52;;;;;;;5.05;4.60;;;;;;;16.86;80.04;96358.72;5037569;28;20219;-57
2023/06/03 01:21:18;;;;;;;5.88;4.13;;;;;;;16.73;81.15;96363.91;5037627;28;20212;-57
2023/06/03 01:23:48;;;;;;;7.03;4.68;;;;;;;16.75;81.42;96359.22;5037720;28;20215;-57
2023/06/03 01:26:16;;;;;;;4.88;4.47;;;;;;;16.72;81.70;96362.25;5038206;28;20258;-58
2023/06/03 01:28:45;;;;;;;5.00;4.60;;;;;;;16.71;80.86;96363.28;5038946;28;20219;-58
2023/06/03 01:31:11;;;;;;;5.22;4.80;;;;;;;16.71;81.19;96362.44;5054456;28;20207;-58
2023/06/03 01:33:37;;;;;;;5.22;4.70;;;;;;;16.63;80.33;96362.56;5055961;28;20207;-58
2023/06/03 01:36:05;;;;;;;6.40;4.80;;;;;;;16.64;81.21;96362.38;5053179;28;20255;-58
2023/06/03 01:38:33;;;;;;;6.25;4.78;;;;;;;16.63;80.94;96368.72;5037916;28;20203;-57
2023/06/03 01:41:01;;;;;;;5.45;4.95;;;;;;;16.54;80.43;96367.16;5037879;28;20215;-57
2023/06/03 01:43:28;;;;;;;7.97;4.82;;;;;;;16.49;82.03;96364.19;5038036;28;20204;-58
2023/06/03 01:45:56;;;;;;;7.95;4.85;;;;;;;16.33;82.00;96370.56;5037493;28;20609;-58
2023/06/03 01:48:22;;;;;;;4.53;4.22;;;;;;;16.39;81.40;96366.34;5037446;28;20211;-58
2023/06/03 01:50:49;;;;;;;5.20;4.47;;;;;;;16.28;82.33;96367.63;5037301;28;20220;-58
2023/06/03 01:53:16;;;;;;;5.32;4.82;;;;;;;16.27;83.00;96373.97;5037814;28;20603;-57
2023/06/03 01:55:42;;;;;;;5.60;4.78;;;;;;;16.25;82.08;96367.19;5037626;28;20731;-57
2023/06/03 01:58:10;;;;;;;4.95;4.50;;;;;;;16.16;84.36;96373.59;5037545;28;20231;-57
2023/06/03 02:00:37;;;;;;;5.40;4.18;;;;;;;16.10;83.25;96367.19;5024643;28;20208;-58
2023/06/03 02:03:03;;;;;;;6.50;4.40;;;;;;;16.11;84.29;96365.34;5036805;28;20211;-59
2023/06/03 02:05:29;;;;;;;8.10;5.13;;;;;;;16.06;84.94;96368.56;5037524;28;20211;-59
2023/06/03 02:07:56;;;;;;;5.20;4.70;;;;;;;16.02;84.34;96367.25;5019396;28;20199;-58
2023/06/03 02:10:22;;;;;;;4.90;4.50;;;;;;;16.19;82.90;96370.59;5036986;28;20211;-58
2023/06/03 02:12:49;;;;;;;5.90;4.93;;;;;;;16.07;84.51;96364.03;5043752;28;20270;-58
2023/06/03 02:15:18;;;;;;;5.32;4.35;;;;;;;16.02;83.98;96361.09;5049720;28;20609;-58
2023/06/03 02:17:48;;;;;;;5.38;4.65;;;;;;;16.02;82.64;96372.59;5045993;28;20227;-58
2023/06/03 02:20:16;;;;;;;4.85;4.45;;;;;;;15.92;83.10;96370.19;5048269;28;20277;-58
2023/06/03 02:22:42;;;;;;;5.22;4.82;;;;;;;15.97;84.26;96379.50;5039031;28;20215;-58
2023/06/03 02:25:09;;;;;;;5.22;4.53;;;;;;;15.91;84.18;96386.38;5037079;28;20199;-57
2023/06/03 02:27:36;;;;;;;9.00;4.85;;;;;;;15.94;83.09;96384.16;5037282;28;20211;-57
2023/06/03 02:30:04;;;;;;;5.88;4.97;;;;;;;15.87;82.25;96380.56;5036287;28;20628;-58
2023/06/03 02:32:34;;;;;;;5.25;4.75;;;;;;;15.89;82.95;96378.56;5037147;28;20227;-57
2023/06/03 02:35:00;;;;;;;5.20;4.57;;;;;;;15.87;84.13;96385.09;5050041;28;20200;-58
2023/06/03 02:37:27;;;;;;;7.90;4.55;;;;;;;15.91;83.62;96386.38;5047833;28;20238;-58
2023/06/03 02:39:55;;;;;;;6.82;4.90;;;;;;;15.78;84.76;96392.34;5028453;28;20287;-58
2023/06/03 02:42:21;;;;;;;4.70;4.30;;;;;;;15.88;83.29;96392.06;5037268;28;20211;-58
2023/06/03 02:44:48;;;;;;;5.47;4.90;;;;;;;15.92;83.52;96393.38;5036904;28;20287;-58
2023/06/03 02:47:14;;;;;;;5.13;4.60;;;;;;;15.76;85.47;96396.22;5036388;28;20644;-57
2023/06/03 02:49:44;;;;;;;5.53;4.78;;;;;;;15.71;81.67;96385.25;5036137;28;20639;-58
2023/06/03 02:52:11;;;;;;;6.50;5.43;;;;;;;15.72;82.63;96395.75;5018861;28;20222;-58
2023/06/03 02:54:37;;;;;;;5.15;4.57;;;;;;;15.75;82.65;96391.88;5035959;28;20695;-58
2023/06/03 02:57:07;;;;;;;6.18;5.13;;;;;;;15.83;83.01;96389.97;5036222;28;20227;-59
2023/06/03 02:59:33;;;;;;;8.00;4.53;;;;;;;15.72;84.70;96395.75;5033692;28;20245;-58
2023/06/03 03:02:00;;;;;;;5.30;4.90;;;;;;;15.64;81.96;96394.97;5026719;28;20214;-58
2023/06/03 03:04:27;;;;;;;5.03;4.53;;;;;;;15.67;83.11;96400.78;5036276;28;20632;-58
2023/06/03 03:06:57;;;;;;;5.32;4.35;;;;;;;15.67;83.55;96399.94;5036183;28;20290;-58
2023/06/03 03:09:23;;;;;;;7.93;5.20;;;;;;;15.56;85.08;96395.03;5036250;28;20215;-58
2023/06/03 03:11:50;;;;;;;5.57;4.90;;;;;;;15.53;83.17;96398.91;5035779;28;20228;-58
2023/06/03 03:14:16;;;;;;;5.20;4.63;;;;;;;15.57;84.58;96399.38;5036073;28;20211;-58
2023/06/03 03:16:43;;;;;;;6.43;4.97;;;;;;;15.50;84.39;96399.25;5035486;28;20242;-58
2023/06/03 03:19:10;;;;;;;7.88;4.78;;;;;;;15.47;84.46;96407.59;5031613;28;20271;-58
2023/06/03 03:21:36;;;;;;;9.57;4.90;;;;;;;15.38;84.58;96405.97;5027188;28;20208;-58
2023/06/03 03:24:04;;;;;;;6.18;5.30;;;;;;;15.32;86.56;96402.19;5036083;28;20223;-58
2023/06/03 03:26:31;;;;;;;5.28;4.78;;;;;;;15.34;85.54;96402.84;5035987;28;20208;-57
2023/06/03 03:28:57;;;;;;;7.18;4.78;;;;;;;15.32;84.55;96399.53;5034958;28;20208;-58
2023/06/03 03:31:24;;;;;;;5.63;5.13;;;;;;;15.24;86.70;96404.09;5035253;28;20208;-57
2023/06/03 03:33:52;;;;;;;6.60;4.57;;;;;;;15.21;86.99;96399.13;5035607;28;20203;-58
2023/06/03 03:36:22;;;;;;;8.15;5.30;;;;;;;15.18;86.46;96408.28;5035470;28;20215;-57
2023/06/03 03:38:51;;;;;;;5.70;4.88;;;;;;;15.18;87.60;96404.81;5036112;28;20302;-57
2023/06/03 03:41:20;;;;;;;6.13;4.55;;;;;;;15.20;84.38;96405.44;5035383;28;20212;-58
2023/06/03 03:43:46;;;;;;;8.15;5.00;;;;;;;15.20;84.57;96400.13;5035786;28;20536;-58
2023/06/03 03:46:14;;;;;;;6.53;4.75;;;;;;;15.18;84.38;96405.63;5034989;28;20561;-58
2023/06/03 03:48:41;;;;;;;6.50;4.77;;;;;;;15.25;85.21;96411.91;5035660;28;20219;-58
2023/06/03 03:51:08;;;;;;;5.23;4.73;;;;;;;15.24;85.92;96420.06;5035442;28;20207;-57
2023/06/03 03:53:36;;;;;;;4.88;4.47;;;;;;;15.28;84.92;96416.03;5016662;28;20209;-57
2023/06/03 03:56:03;;;;;;;7.13;4.90;;;;;;;15.36;84.83;96406.16;5030098;28;20231;-58
2023/06/03 03:58:41;;;;;;;5.33;4.90;;;;;;;15.29;86.48;96405.22;5035291;28;20245;-58
2023/06/03 04:01:12;;;;;;;6.97;5.07;;;;;;;15.28;85.72;96408.06;5021862;28;20290;-57
2023/06/03 04:03:40;;;;;;;7.57;4.80;;;;;;;15.42;85.65;96407.28;5035419;28;20214;-57
2023/06/03 04:06:08;;;;;;;8.33;4.90;;;;;;;15.40;86.31;96406.66;5032239;28;20215;-57
2023/06/03 04:08:39;;;;;;;7.17;4.90;;;;;;;15.32;87.74;96407.53;5026464;28;20242;-57
2023/06/03 04:11:07;;;;;;;6.70;4.70;;;;;;;15.43;84.99;96411.59;5034794;28;20243;-57
2023/06/03 04:13:37;;;;;;;5.75;5.10;;;;;;;15.41;85.51;96405.63;5035431;28;20219;-57
2023/06/03 04:16:04;;;;;;;6.43;4.93;;;;;;;15.38;87.40;96412.13;5033821;28;20235;-58
2023/06/03 04:18:32;;;;;;;5.75;5.13;;;;;;;15.36;86.76;96408.00;5035066;28;20219;-57
2023/06/03 04:21:00;;;;;;;9.57;4.57;;;;;;;15.34;86.84;96415.31;5034929;28;20216;-57
2023/06/03 04:23:30;;;;;;;7.72;5.25;;;;;;;15.37;88.97;96415.81;5035214;28;20286;-58
2023/06/03 04:25:59;;;;;;;11.90;5.13;;;;;;;15.45;87.23;96414.91;5022680;28;20257;-58
2023/06/03 04:28:26;;;;;;;8.32;5.13;;;;;;;15.43;87.68;96419.59;5047626;28;20207;-58
2023/06/03 04:30:56;;;;;;;5.47;5.00;;;;;;;15.52;85.93;96417.75;5043295;28;20307;-58
2023/06/03 04:33:23;;;;;;;5.35;4.85;;;;;;;15.56;86.07;96414.53;5053743;28;20204;-57
2023/06/03 04:35:50;;;;;;;5.72;5.07;;;;;;;15.57;84.11;96421.53;5035721;28;20216;-58
2023/06/03 04:38:16;;;;;;;5.80;4.95;;;;;;;15.59;83.72;96416.81;5034138;28;20667;-58
2023/06/03 04:40:46;;;;;;;7.53;4.87;;;;;;;15.79;83.75;96407.34;5034525;28;20242;-58
2023/06/03 04:43:14;;;;;;;7.75;4.63;;;;;;;15.93;83.40;96406.53;5034931;28;20216;-58
2023/06/03 04:45:44;;;;;;;5.65;4.85;;;;;;;16.11;81.53;96418.69;5034833;28;20212;-59
2023/06/03 04:48:13;;;;;;;6.40;5.05;;;;;;;16.21;81.61;96413.91;5017010;28;20208;-57
2023/06/03 04:50:44;;;;;;;7.22;5.15;;;;;;;16.31;79.90;96409.97;5034929;28;20242;-57
2023/06/03 04:53:12;;;;;;;5.80;4.60;;;;;;;16.32;80.87;96419.63;5035358;28;20558;-58
2023/06/03 04:55:39;;;;;;;5.55;4.60;;;;;;;16.42;79.61;96416.66;5036159;28;20220;-58
2023/06/03 04:58:05;;;;;;;7.70;5.10;;;;;;;16.48;75.70;96418.59;5030789;28;20898;-58
2023/06/03 05:00:32;;;;;;;5.00;4.50;;;;;;;16.57;75.81;96414.88;5026739;28;20258;-58
2023/06/03 05:02:59;;;;;;;6.78;4.63;;;;;;;16.56;77.97;96415.03;5034375;28;20204;-58
2023/06/03 05:05:27;;;;;;;5.13;4.68;;;;;;;16.64;78.08;96413.09;5034829;28;20231;-59
2023/06/03 05:07:55;;;;;;;7.30;5.30;;;;;;;16.67;74.62;96414.56;5022769;28;20199;-59
2023/06/03 05:10:21;;;;;;;6.13;4.90;;;;;;;16.81;73.02;96417.22;5028078;28;20208;-58
2023/06/03 05:12:50;;;;;;;6.35;4.90;;;;;;;16.98;74.19;96415.16;5034506;28;20238;-58
2023/06/03 05:15:19;;;;;;;5.88;4.45;;;;;;;17.11;74.20;96419.81;5034286;28;20204;-58
2023/06/03 05:17:45;;;;;;;5.57;4.60;;;;;;;17.26;72.46;96415.25;5034758;28;20250;-58
2023/06/03 05:20:12;;;;;;;6.75;4.95;;;;;;;17.14;71.38;96417.59;5034500;28;20211;-59
2023/06/03 05:22:40;;;;;;;7.35;4.80;;;;;;;17.43;69.46;96422.00;5033872;28;20212;-59
2023/06/03 05:25:07;;;;;;;5.55;4.80;;;;;;;17.49;68.91;96418.56;5034562;28;20208;-58
2023/06/03 05:27:34;;;;;;;6.15;4.90;;;;;;;17.65;68.83;96418.31;5021637;28;20219;-58
2023/06/03 05:30:01;;;;;;;9.60;5.03;;;;;;;17.76;68.93;96420.50;5016713;28;20203;-59
2023/06/03 05:32:30;;;;;;;6.75;4.60;;;;;;;17.84;68.48;96409.66;5034729;28;20211;-59
2023/06/03 05:34:57;;;;;;;5.53;4.50;;;;;;;17.92;69.04;96427.41;5034381;28;20250;-59
2023/06/03 05:37:25;;;;;;;6.95;4.85;;;;;;;18.10;67.34;96422.41;5035174;28;20235;-58
2023/06/03 05:39:53;;;;;;;7.55;5.00;;;;;;;18.28;68.00;96420.03;5044801;28;20221;-59
2023/06/03 05:42:19;;;;;;;9.43;5.22;;;;;;;18.27;65.62;96428.28;5047944;28;20219;-58
2023/06/03 05:44:46;;;;;;;7.15;5.68;;;;;;;18.33;64.57;96416.78;5039971;28;20216;-58
2023/06/03 05:47:13;;;;;;;8.10;4.78;;;;;;;18.52;66.83;96423.31;5028425;28;20287;-58
2023/06/03 05:49:44;;;;;;;5.90;4.68;;;;;;;18.71;65.72;96431.44;5033762;28;20200;-59
2023/06/03 05:52:11;;;;;;;10.95;5.57;;;;;;;18.97;65.01;96424.56;5036057;28;20584;-58
2023/06/03 05:54:38;;;;;;;5.05;4.53;;;;;;;19.14;63.59;96432.03;5037856;28;20208;-58
2023/06/03 05:57:06;;;;;;;7.30;4.70;;;;;;;19.24;63.15;96418.25;5038982;28;20226;-59
2023/06/03 05:59:32;;;;;;;6.43;4.50;;;;;;;19.38;62.58;96419.94;5024390;28;20200;-58
2023/06/03 06:01:59;;;;;;;5.38;4.45;;;;;;;19.63;62.36;96417.53;5031375;28;20219;-58
2023/06/03 06:04:26;;;;;;;6.60;4.85;;;;;;;19.77;62.05;96420.00;5051949;28;20218;-59
2023/06/03 06:06:52;;;;;;;7.38;4.82;;;;;;;19.97;62.36;96420.03;5048773;28;20188;-59
2023/06/03 06:09:19;;;;;;;5.93;5.00;;;;;;;20.09;61.37;96420.22;5052631;28;20207;-58
2023/06/03 06:11:45;;;;;;;7.07;5.35;;;;;;;20.11;60.12;96420.84;5037225;28;20246;-58
2023/06/03 06:14:16;;;;;;;8.13;5.28;;;;;;;20.22;61.29;96412.16;5037378;28;20585;-58
2023/06/03 06:16:43;;;;;;;7.53;5.40;;;;;;;20.42;60.79;96417.53;5048480;28;20215;-58
2023/06/03 06:19:12;;;;;;;8.07;5.40;;;;;;;20.69;59.36;96421.81;5052914;28;20322;-58
2023/06/03 06:21:38;;;;;;;8.40;5.05;;;;;;;20.82;59.25;96424.47;5052857;28;20200;-59
2023/06/03 06:24:06;;;;;;;7.75;5.00;;;;;;;21.03;58.74;96426.03;5051176;28;20200;-59
2023/06/03 06:26:33;;;;;;;6.53;5.60;;;;;;;21.04;55.86;96428.53;5045170;28;20192;-58
2023/06/03 06:28:59;;;;;;;5.28;4.60;;;;;;;21.13;57.94;96421.03;5056744;28;20203;-62
2023/06/03 06:31:28;;;;;;;7.97;4.95;;;;;;;21.30;57.06;96422.19;5057095;28;20219;-59
2023/06/03 06:33:55;;;;;;;6.68;5.07;;;;;;;21.39;57.00;96420.09;5056559;28;20231;-59
2023/06/03 06:36:43;;;;;;;6.80;4.75;;;;;;;21.54;58.60;96418.72;5037272;28;20545;-58
2023/06/03 06:39:38;;;;;;;9.95;5.35;;;;;;;21.65;56.61;96426.13;5037046;28;20231;-58
2023/06/03 06:42:10;;;;;;;7.65;6.13;;;;;;;21.80;54.98;96423.94;5037348;28;20564;-58
2023/06/03 06:44:43;;;;;;;8.00;6.03;;;;;;;21.59;55.27;96427.00;5056677;28;20628;-58
2023/06/03 06:47:12;;;;;;;9.63;5.22;;;;;;;21.72;56.40;96424.22;5055299;28;20211;-58
2023/06/03 06:49:38;;;;;;;6.85;5.60;;;;;;;21.61;55.94;96429.50;5042939;28;20223;-58
2023/06/03 06:52:06;;;;;;;7.93;5.80;;;;;;;21.83;56.36;96412.75;5036796;28;20562;-59
2023/06/03 06:54:33;;;;;;;7.80;5.28;;;;;;;21.97;54.09;96423.44;5036764;28;20215;-59
2023/06/03 06:57:00;;;;;;;6.50;5.43;;;;;;;22.09;53.59;96425.22;5036246;28;20635;-58
2023/06/03 06:59:27;;;;;;;6.97;5.57;;;;;;;22.23;52.03;96417.84;5033472;28;20235;-58
2023/06/03 07:01:53;;;;;;;12.68;6.40;;;;;;;22.18;55.79;96428.44;5027630;28;20610;-58
2023/06/03 07:04:21;;;;;;;8.35;5.63;;;;;;;22.47;54.82;96418.84;5036173;28;20223;-58
2023/06/03 07:06:47;;;;;;;7.82;5.47;;;;;;;22.59;54.25;96423.28;5027985;28;20224;-59
2023/06/03 07:09:14;;;;;;;8.10;5.55;;;;;;;22.46;52.91;96422.59;5033277;28;20208;-58
2023/06/03 07:11:47;;;;;;;11.75;6.00;;;;;;;22.67;51.07;96430.28;5036012;28;20238;-59
2023/06/03 07:14:15;;;;;;;9.00;5.43;;;;;;;22.90;53.29;96429.59;5036491;28;20211;-59
2023/06/03 07:16:42;;;;;;;7.22;5.88;;;;;;;22.89;51.73;96433.34;5035978;28;20203;-58
2023/06/03 07:19:08;;;;;;;6.75;5.47;;;;;;;22.96;51.83;96431.38;5035756;28;20535;-58
2023/06/03 07:21:36;;;;;;;6.90;5.40;;;;;;;22.95;51.62;96435.16;5036043;28;20211;-58
2023/06/03 07:24:03;;;;;;;8.70;5.80;;;;;;;23.04;51.26;96442.72;5035473;28;20218;-58
2023/06/03 07:26:31;;;;;;;7.57;5.20;;;;;;;23.08;51.43;96440.38;5035820;28;20207;-58
2023/06/03 07:28:58;;;;;;;6.28;5.65;;;;;;;23.01;52.60;96437.78;5036143;28;20279;-58
2023/06/03 07:31:25;;;;;;;8.10;6.20;;;;;;;22.93;52.46;96434.53;5035502;28;20207;-58
2023/06/03 07:33:54;;;;;;;7.18;5.82;;;;;;;23.33;52.35;96446.50;5035617;28;20215;-58
2023/06/03 07:36:22;;;;;;;9.25;5.90;;;;;;;23.43;52.26;96457.59;5035355;28;20215;-58
2023/06/03 07:39:02;;;;;;;7.63;6.05;;;;;;;23.44;52.53;96445.78;5034753;28;20232;-60
2023/06/03 07:41:37;;;;;;;6.93;5.60;;;;;;;23.70;49.97;96447.28;5029022;28;20227;-59
2023/06/03 07:44:09;;;;;;;8.00;6.07;;;;;;;24.01;49.30;96448.88;5035012;28;20237;-58
2023/06/03 07:46:42;;;;;;;7.70;5.60;;;;;;;23.76;51.65;96447.19;5034413;28;20394;-59
2023/06/03 07:49:12;;;;;;;7.50;5.70;;;;;;;24.02;50.41;96445.94;5035003;28;20199;-59
2023/06/03 07:51:44;;;;;;;7.68;5.43;;;;;;;23.79;51.57;96449.41;5034537;28;20212;-60
2023/06/03 07:54:12;;;;;;;6.25;5.70;;;;;;;24.29;49.32;96451.78;5034636;28;20219;-57
2023/06/03 07:56:38;;;;;;;10.25;6.15;;;;;;;24.38;49.39;96442.25;5029611;28;20216;-59
2023/06/03 07:59:06;;;;;;;9.50;6.07;;;;;;;23.53;49.05;96452.47;5027154;28;20228;-59
2023/06/03 08:01:35;;;;;;;8.48;6.25;;;;;;;23.09;54.20;96439.34;5021773;28;20333;-59
2023/06/03 08:04:04;;;;;;;7.18;5.45;;;;;;;23.67;51.55;96443.16;5034607;28;20207;-58
2023/06/03 08:06:32;;;;;;;7.43;5.80;;;;;;;23.85;50.79;96449.53;5027282;28;20255;-59
2023/06/03 08:09:00;;;;;;;9.32;6.28;;;;;;;23.94;49.68;96442.75;5029736;28;20215;-60
2023/06/03 08:11:28;;;;;;;8.85;6.30;;;;;;;23.65;48.40;96442.56;5034886;28;20239;-60
2023/06/03 08:13:55;;;;;;;5.95;5.35;;;;;;;24.18;51.84;96439.91;5038250;28;20223;-59
2023/06/03 08:16:22;;;;;;;8.65;5.80;;;;;;;24.60;49.87;96435.22;5037815;28;20208;-59
2023/06/03 08:18:50;;;;;;;8.82;6.22;;;;;;;24.73;47.60;96440.38;5040192;28;20238;-59
2023/06/03 08:21:18;;;;;;;6.00;5.40;;;;;;;24.59;48.74;96440.84;5045951;28;20688;-60
2023/06/03 08:23:44;;;;;;;9.55;6.32;;;;;;;24.72;48.86;96440.63;5038722;28;20226;-59
2023/06/03 08:26:12;;;;;;;8.48;6.07;;;;;;;24.76;46.32;96442.59;5036613;28;20628;-58
2023/06/03 08:28:39;;;;;;;7.15;5.40;;;;;;;25.07;50.29;96437.91;5036850;28;20204;-60
2023/06/03 08:31:06;;;;;;;8.93;6.15;;;;;;;24.71;46.09;96445.22;5036693;28;20210;-59
2023/06/03 08:33:33;;;;;;;6.03;5.43;;;;;;;24.96;49.85;96441.44;5037337;28;20212;-58
2023/06/03 08:35:59;;;;;;;7.65;6.32;;;;;;;24.75;46.32;96440.16;5034448;28;20215;-58
2023/06/03 08:38:26;;;;;;;7.40;5.82;;;;;;;25.08;46.92;96444.97;5034140;28;20671;-59
2023/06/03 08:40:53;;;;;;;8.30;5.95;;;;;;;25.33;47.32;96442.75;5032725;28;20206;-58
2023/06/03 08:43:21;;;;;;;7.97;5.65;;;;;;;25.11;48.39;96448.00;5033436;28;20659;-57
2023/06/03 08:45:54;;;;;;;7.90;6.28;;;;;;;24.87;47.88;96449.09;5033583;28;20207;-58
2023/06/03 08:48:25;;;;;;;6.38;5.40;;;;;;;25.08;47.23;96443.03;5033921;28;20227;-58
2023/06/03 08:51:01;;;;;;;8.48;6.32;;;;;;;24.99;48.16;96446.38;5034282;28;20210;-58
2023/06/03 08:53:30;;;;;;;9.18;6.20;;;;;;;25.35;47.17;96440.63;5033967;28;20238;-59
2023/06/03 08:56:01;;;;;;;8.27;5.97;;;;;;;25.48;47.89;96444.94;5033514;28;20204;-59
2023/06/03 08:58:32;;;;;;;8.63;6.75;;;;;;;25.49;47.37;96441.16;5040703;28;20223;-59
2023/06/03 09:01:02;;;;;;;6.95;6.25;;;;;;;25.12;46.78;96440.69;5026699;28;20201;-58
2023/06/03 09:03:29;;;;;;;13.82;5.78;;;;;;;25.32;47.61;96438.41;5038328;28;20295;-58
2023/06/03 09:05:57;;;;;;;7.03;6.15;;;;;;;25.51;45.65;96445.31;5032777;28;20519;-58
2023/06/03 09:08:25;;;;;;;9.57;6.15;;;;;;;25.35;47.10;96440.63;5024265;28;20215;-58
2023/06/03 09:10:51;;;;;;;6.88;6.25;;;;;;;25.58;44.71;96439.75;5025973;28;20243;-57
2023/06/03 09:13:18;;;;;;;10.93;6.00;;;;;;;25.68;46.86;96429.91;5034119;28;20207;-59
2023/06/03 09:15:46;;;;;;;15.05;6.57;;;;;;;25.45;47.10;96429.16;5030411;28;20220;-57
2023/06/03 09:18:16;;;;;;;6.72;6.03;;;;;;;25.97;48.77;96422.56;5032378;28;20211;-58
2023/06/03 09:20:43;;;;;;;6.43;5.45;;;;;;;26.11;46.15;96428.53;5031847;28;20203;-58
2023/06/03 09:23:09;;;;;;;9.30;6.00;;;;;;;26.15;47.13;96435.06;5032272;28;20295;-57
2023/06/03 09:25:36;;;;;;;7.03;5.45;;;;;;;26.60;46.39;96433.13;5032447;28;20216;-57
2023/06/03 09:28:06;;;;;;;7.47;6.70;;;;;;;26.20;44.16;96440.63;5035369;28;20219;-58
2023/06/03 09:30:35;;;;;;;11.45;6.85;;;;;;;26.10;44.69;96437.72;5035525;28;20200;-58
2023/06/03 09:33:02;;;;;;;7.82;6.20;;;;;;;26.61;45.55;96437.47;5037566;28;20203;-58
2023/06/03 09:35:29;;;;;;;6.55;5.95;;;;;;;26.86;46.46;96437.03;5037975;28;20212;-57
2023/06/03 09:38:00;;;;;;;7.85;6.13;;;;;;;26.83;45.32;96434.84;5037941;28;20587;-57
2023/06/03 09:40:30;;;;;;;8.07;6.78;;;;;;;26.67;43.31;96435.66;5037588;28;20232;-57
2023/06/03 09:42:57;;;;;;;6.97;6.15;;;;;;;26.59;45.65;96438.78;5037512;28;20203;-57
2023/06/03 09:45:27;;;;;;;6.20;5.60;;;;;;;26.65;46.26;96438.63;5024170;28;20215;-57
2023/06/03 09:47:53;;;;;;;8.05;6.60;;;;;;;25.89;45.78;96441.97;5037370;28;20636;-58
2023/06/03 09:50:21;;;;;;;8.15;6.50;;;;;;;25.67;45.61;96447.25;5037725;28;20216;-57
2023/06/03 09:52:49;;;;;;;8.88;6.18;;;;;;;26.09;45.23;96431.47;5033922;28;20210;-58
2023/06/03 09:55:17;;;;;;;8.20;6.40;;;;;;;26.11;47.51;96431.25;5040714;28;20196;-57
2023/06/03 09:58:01;;;;;;;7.22;6.38;;;;;;;26.26;46.69;96439.63;5040530;28;20215;-58
2023/06/03 10:00:27;;;;;;;12.88;6.28;;;;;;;26.12;46.72;96441.81;5031213;28;20652;-57
2023/06/03 10:03:05;;;;;;;9.80;6.40;;;;;;;26.06;46.47;96436.56;5035088;28;20211;-57
2023/06/03 10:05:33;;;;;;;8.98;5.78;;;;;;;26.32;47.15;96418.84;5037323;28;20208;-58
2023/06/03 10:08:02;;;;;;;8.43;5.53;;;;;;;26.38;48.08;96429.53;5025615;28;20208;-59
2023/06/03 10:10:29;;;;;;;7.63;4.97;;;;;;;26.67;47.41;96422.94;5037830;28;20204;-58
2023/06/03 10:12:57;;;;;;;8.15;6.35;;;;;;;26.58;45.55;96418.97;5039573;28;20664;-58
2023/06/03 10:15:37;;;;;;;7.13;5.85;;;;;;;26.73;47.30;96421.94;5039515;28;20219;-58
2023/06/03 10:18:03;;;;;;;6.35;5.75;;;;;;;26.84;47.75;96419.38;5028500;28;20210;-58
2023/06/03 10:20:34;;;;;;;7.82;6.10;;;;;;;26.85;45.38;96419.13;5036630;28;20659;-58
2023/06/03 10:23:05;;;;;;;6.20;5.55;;;;;;;26.89;46.33;96416.75;5037134;28;20218;-58
2023/06/03 10:25:34;;;;;;;8.35;6.75;;;;;;;26.57;46.50;96414.63;5036763;28;20204;-58
2023/06/03 10:28:01;;;;;;;6.65;5.90;;;;;;;26.56;48.21;96410.28;5036931;28;20207;-57
2023/06/03 10:30:28;;;;;;;9.50;6.68;;;;;;;26.59;47.91;96412.50;5040548;28;20199;-58
2023/06/03 10:32:58;;;;;;;7.20;6.50;;;;;;;26.65;46.43;96403.34;5036663;28;20211;-57
2023/06/03 10:35:33;;;;;;;6.68;5.53;;;;;;;26.75;46.09;96401.88;5037025;28;20294;-58
2023/06/03 10:38:01;;;;;;;9.27;6.40;;;;;;;26.61;44.89;96396.78;5037002;28;20227;-58
2023/06/03 10:40:29;;;;;;;6.78;6.00;;;;;;;26.49;46.11;96403.38;5036672;28;20228;-58
2023/06/03 10:42:56;;;;;;;5.95;5.45;;;;;;;26.66;46.64;96396.88;5036310;28;20712;-56
2023/06/03 10:45:23;;;;;;;6.70;5.53;;;;;;;26.80;46.03;96396.50;5036213;28;20644;-57
2023/06/03 10:47:55;;;;;;;7.03;5.45;;;;;;;26.70;46.12;96389.03;5037338;28;20269;-58
2023/06/03 10:50:28;;;;;;;7.75;5.97;;;;;;;26.87;45.10;96397.16;5040755;28;20188;-57
2023/06/03 10:53:08;;;;;;;7.25;5.45;;;;;;;26.94;45.37;96392.38;5047441;28;20215;-58
2023/06/03 10:55:38;;;;;;;7.72;5.82;;;;;;;26.93;44.53;96388.00;5040876;28;20200;-57
2023/06/03 10:58:10;;;;;;;8.23;5.63;;;;;;;27.37;44.37;96395.06;5036116;28;20210;-58
2023/06/03 11:00:56;;;;;;;6.60;5.88;;;;;;;27.53;46.00;96388.75;5023639;28;20208;-57
2023/06/03 11:03:24;;;;;;;6.88;5.93;;;;;;;27.68;45.13;96396.25;5024881;28;20216;-57
2023/06/03 11:05:51;;;;;;;6.07;5.00;;;;;;;27.63;43.57;96391.56;5036313;28;20211;-58
2023/06/03 11:08:50;;;;;;;6.32;5.47;;;;;;;27.56;44.66;96385.53;5036503;28;20211;-58
2023/06/03 11:11:59;;;;;;;8.23;5.95;;;;;;;27.34;42.07;96384.72;5031659;28;20254;-58
2023/06/03 11:14:52;;;;;;;6.43;4.65;;;;;;;27.53;44.31;96390.66;5037965;28;20253;-58
2023/06/03 11:17:19;;;;;;;5.65;5.07;;;;;;;27.54;44.20;96386.84;5036814;28;20586;-59
2023/06/03 11:19:49;;;;;;;5.85;5.20;;;;;;;27.53;43.70;96383.31;5036293;28;20290;-58
2023/06/03 11:22:41;;;;;;;6.68;5.30;;;;;;;27.95;42.64;96382.66;5035948;28;20534;-58
2023/06/03 11:25:09;;;;;;;8.57;5.82;;;;;;;27.97;42.00;96383.19;5017875;28;20208;-58
2023/06/03 11:27:37;;;;;;;7.75;5.32;;;;;;;27.98;44.93;96379.41;5035891;28;20222;-58
2023/06/03 11:30:07;;;;;;;5.95;5.38;;;;;;;27.94;43.46;96378.28;5035383;28;20265;-58
2023/06/03 11:32:35;;;;;;;8.30;5.63;;;;;;;28.04;44.20;96378.38;5036208;28;20208;-58
2023/06/03 11:35:27;;;;;;;6.68;5.30;;;;;;;28.32;43.47;96369.91;5035884;28;20596;-57
2023/06/03 11:37:54;;;;;;;6.13;5.35;;;;;;;28.14;47.47;96370.31;5036043;28;20238;-58
2023/06/03 11:40:21;;;;;;;5.72;5.07;;;;;;;28.39;43.56;96364.25;5035234;28;20710;-58
2023/06/03 11:43:07;;;;;;;6.80;5.28;;;;;;;28.32;42.27;96367.19;5035511;28;20215;-59